Time;durP1;ratioP1;P1;durP2;ratioP2;P2;SDS_P1;SDS_P2;PMS_P1;PMS_P2;Temp;Humidity;BMP_temperature;BMP_pressure;BME280_temperature;BME280_humidity;BME280_pressure;Samples;Min_cycle;Max_cycle;Signal;HPM_P1;HPM_P2
2021/08/11 00:01:57;;;;;;;11.98;2.50;;;;;;;13.17;51.70;95798.31;5009269;28;20070;-62
2021/08/11 00:04:23;;;;;;;4.95;2.30;;;;;;;13.12;51.89;95800.72;5005622;28;20110;-62
2021/08/11 00:06:48;;;;;;;4.35;2.50;;;;;;;13.04;52.23;95791.00;5008977;28;20458;-62
2021/08/11 00:09:14;;;;;;;2.40;2.20;;;;;;;13.02;52.19;95794.88;5008762;28;20579;-62
2021/08/11 00:11:39;;;;;;;3.75;2.00;;;;;;;13.02;52.10;95787.66;5008649;28;20098;-62
2021/08/11 00:14:05;;;;;;;1.83;1.73;;;;;;;13.03;51.62;95794.66;5009405;28;20085;-62
2021/08/11 00:16:30;;;;;;;4.85;2.20;;;;;;;13.08;51.52;95801.31;5008626;28;20152;-62
2021/08/11 00:18:57;;;;;;;3.47;2.10;;;;;;;13.01;51.71;95806.56;5008987;28;20169;-62
2021/08/11 00:21:22;;;;;;;3.15;2.20;;;;;;;12.98;51.97;95801.59;5008273;28;20478;-62
2021/08/11 00:23:48;;;;;;;4.50;2.30;;;;;;;12.91;51.89;95805.00;5005640;28;20113;-62
2021/08/11 00:26:13;;;;;;;5.40;2.30;;;;;;;12.90;52.46;95797.16;5008884;28;20653;-62
2021/08/11 00:28:38;;;;;;;7.32;2.50;;;;;;;12.87;52.71;95800.22;5008718;28;20563;-62
2021/08/11 00:31:04;;;;;;;8.05;2.28;;;;;;;12.90;51.99;95799.84;5008839;28;20086;-62
2021/08/11 00:33:30;;;;;;;4.35;2.58;;;;;;;12.84;51.62;95804.09;5008834;28;20114;-62
2021/08/11 00:35:55;;;;;;;2.47;2.28;;;;;;;12.73;52.38;95797.41;5008594;28;20117;-62
2021/08/11 00:38:22;;;;;;;4.38;2.38;;;;;;;12.70;52.18;95800.44;5009020;28;20500;-62
2021/08/11 00:40:48;;;;;;;4.03;2.17;;;;;;;12.66;52.03;95799.16;5008510;28;20106;-62
2021/08/11 00:43:13;;;;;;;9.30;2.15;;;;;;;12.59;52.15;95799.09;5008975;28;20559;-62
2021/08/11 00:45:38;;;;;;;4.07;2.30;;;;;;;12.51;52.16;95802.66;5008474;28;20137;-62
2021/08/11 00:48:04;;;;;;;4.20;2.40;;;;;;;12.46;52.02;95798.91;5008593;28;20121;-62
2021/08/11 00:50:30;;;;;;;7.22;2.00;;;;;;;12.37;52.64;95796.34;5009025;28;20086;-62
2021/08/11 00:52:56;;;;;;;13.00;2.10;;;;;;;12.31;52.11;95797.09;5008315;28;20114;-62
2021/08/11 00:55:22;;;;;;;30.02;2.60;;;;;;;12.26;53.33;95797.63;5005364;28;20082;-62
2021/08/11 00:57:48;;;;;;;13.65;2.50;;;;;;;12.15;52.89;95793.59;5008793;28;20687;-62
2021/08/11 01:00:14;;;;;;;9.18;2.10;;;;;;;12.09;54.12;95798.81;5010598;28;20102;-62
2021/08/11 01:02:39;;;;;;;20.90;2.33;;;;;;;12.06;53.90;95793.81;5010823;28;20407;-62
2021/08/11 01:05:05;;;;;;;2.30;2.15;;;;;;;12.01;53.81;95797.03;5007718;28;20117;-62
2021/08/11 01:07:33;;;;;;;2.15;2.00;;;;;;;11.98;53.12;95792.91;5012127;28;20516;-62
2021/08/11 01:09:58;;;;;;;1.95;1.70;;;;;;;11.96;53.16;95791.41;4994929;28;20180;-62
2021/08/11 01:12:25;;;;;;;5.57;2.10;;;;;;;11.95;53.63;95795.09;5010574;28;20459;-62
2021/08/11 01:14:51;;;;;;;42.83;2.70;;;;;;;11.93;53.24;95799.78;5012362;28;20090;-62
2021/08/11 01:17:20;;;;;;;5.78;1.80;;;;;;;11.90;53.14;95790.31;5011943;28;20105;-62
2021/08/11 01:19:45;;;;;;;1.92;1.75;;;;;;;11.83;53.50;95795.53;5011730;28;20110;-63
2021/08/11 01:22:27;;;;;;;1.75;1.65;;;;;;;11.80;52.41;95792.41;5010521;28;20071;-62
2021/08/11 01:25:21;;;;;;;6.90;1.77;;;;;;;11.78;53.09;95797.94;4994598;28;20105;-62
2021/08/11 01:28:23;;;;;;;2.15;1.85;;;;;;;11.70;53.69;95803.34;5006743;28;20110;-62
2021/08/11 01:31:06;;;;;;;9.48;1.90;;;;;;;11.75;53.76;95800.94;5007826;28;20085;-62
2021/08/11 01:34:07;;;;;;;5.40;1.80;;;;;;;11.71;52.99;95792.50;4995671;28;20153;-62
2021/08/11 01:36:52;;;;;;;2.55;2.15;;;;;;;11.76;54.02;95800.78;5005142;28;20136;-62
2021/08/11 01:39:35;;;;;;;2.38;2.05;;;;;;;11.74;54.09;95792.13;5010441;28;20078;-62
2021/08/11 01:42:05;;;;;;;2.08;1.88;;;;;;;11.76;53.34;95791.94;4994241;28;20145;-62
2021/08/11 01:44:36;;;;;;;3.90;2.00;;;;;;;11.78;54.30;95792.59;5011881;28;20225;-62
2021/08/11 01:47:02;;;;;;;8.55;2.03;;;;;;;11.80;54.23;95800.41;4995364;28;20912;-62
2021/08/11 01:49:27;;;;;;;2.85;1.98;;;;;;;11.82;53.85;95795.72;4994014;28;20102;-63
2021/08/11 01:51:53;;;;;;;5.13;2.10;;;;;;;11.78;53.92;95803.25;5009861;28;20110;-62
2021/08/11 01:54:18;;;;;;;1.95;1.83;;;;;;;11.78;53.71;95797.94;5012203;28;20105;-62
2021/08/11 01:56:45;;;;;;;2.15;1.95;;;;;;;11.77;53.59;95801.63;5009947;28;20168;-62
2021/08/11 01:59:11;;;;;;;2.38;2.03;;;;;;;11.76;53.95;95802.59;4986790;28;20083;-62
2021/08/11 02:01:39;;;;;;;1.92;1.75;;;;;;;11.79;54.13;95802.25;5009983;28;20098;-62
2021/08/11 02:04:08;;;;;;;2.20;2.00;;;;;;;11.78;53.06;95803.25;4993322;28;20105;-62
2021/08/11 02:06:37;;;;;;;1.90;1.80;;;;;;;11.80;53.25;95803.88;5011099;28;20090;-63
2021/08/11 02:09:03;;;;;;;2.63;1.77;;;;;;;11.79;53.98;95802.25;5009719;28;20130;-62
2021/08/11 02:11:28;;;;;;;1.90;1.80;;;;;;;11.79;53.83;95798.75;5009086;28;20102;-62
2021/08/11 02:13:54;;;;;;;1.83;1.70;;;;;;;11.78;53.46;95800.59;5010078;28;20082;-63
2021/08/11 02:16:19;;;;;;;2.03;1.80;;;;;;;11.78;53.25;95805.94;5010895;28;20102;-63
2021/08/11 02:18:45;;;;;;;1.90;1.80;;;;;;;11.74;53.88;95799.31;5010304;28;20110;-62
2021/08/11 02:21:10;;;;;;;1.65;1.55;;;;;;;11.74;53.33;95807.31;5011037;28;20149;-62
2021/08/11 02:23:36;;;;;;;2.00;1.80;;;;;;;11.72;53.39;95799.47;5006491;28;20531;-62
2021/08/11 02:26:18;;;;;;;2.28;1.65;;;;;;;11.69;53.05;95804.34;5011130;28;20078;-62
2021/08/11 02:29:06;;;;;;;1.77;1.67;;;;;;;11.68;52.64;95802.69;5010993;28;20637;-62
2021/08/11 02:31:57;;;;;;;1.75;1.65;;;;;;;11.68;53.21;95805.34;5009551;28;20105;-62
2021/08/11 02:34:43;;;;;;;2.80;1.83;;;;;;;11.69;52.61;95796.34;5006596;28;20194;-62
2021/08/11 02:37:12;;;;;;;1.90;1.80;;;;;;;11.67;53.65;95801.88;5009424;28;20114;-62
2021/08/11 02:40:06;;;;;;;2.03;1.90;;;;;;;11.56;54.28;95805.78;5010580;28;20096;-62
2021/08/11 02:42:35;;;;;;;4.95;1.67;;;;;;;11.61;53.67;95803.41;5001737;28;20147;-62
2021/08/11 02:45:02;;;;;;;7.60;2.42;;;;;;;11.57;53.75;95804.78;5009103;28;20193;-62
2021/08/11 02:47:27;;;;;;;2.47;2.20;;;;;;;11.57;53.99;95806.59;5010279;28;20096;-63
2021/08/11 02:49:52;;;;;;;3.15;2.15;;;;;;;11.59;54.12;95805.41;5009741;28;20096;-62
2021/08/11 02:52:18;;;;;;;3.75;2.20;;;;;;;11.58;53.79;95805.59;4992404;28;20110;-62
2021/08/11 02:54:43;;;;;;;2.10;2.00;;;;;;;11.55;54.06;95798.78;5010806;28;20085;-62
2021/08/11 02:57:09;;;;;;;1.92;1.77;;;;;;;11.54;53.94;95801.63;5010009;28;20106;-63
2021/08/11 02:59:35;;;;;;;2.28;1.73;;;;;;;11.51;54.05;95805.50;5008722;28;20074;-62
2021/08/11 03:02:00;;;;;;;1.85;1.60;;;;;;;11.48;53.86;95803.19;5007773;28;20168;-62
2021/08/11 03:04:26;;;;;;;2.15;1.70;;;;;;;11.43;53.86;95803.72;5008309;28;20694;-62
2021/08/11 03:06:51;;;;;;;1.98;1.70;;;;;;;11.38;54.26;95800.75;5010505;28;20419;-62
2021/08/11 03:09:17;;;;;;;3.22;1.55;;;;;;;11.33;53.08;95797.81;5008464;28;20130;-62
2021/08/11 03:11:42;;;;;;;1.60;1.50;;;;;;;11.30;53.87;95798.16;5008525;28;20122;-62
2021/08/11 03:14:08;;;;;;;2.10;1.50;;;;;;;11.24;54.34;95805.03;5009190;28;20073;-62
2021/08/11 03:16:39;;;;;;;1.83;1.65;;;;;;;11.18;54.20;95806.56;4992398;28;20098;-62
2021/08/11 03:19:05;;;;;;;1.90;1.80;;;;;;;11.12;54.97;95808.09;5009992;28;20097;-63
2021/08/11 03:21:31;;;;;;;1.77;1.67;;;;;;;11.09;54.29;95802.31;5009563;28;20118;-62
2021/08/11 03:23:56;;;;;;;2.70;1.50;;;;;;;11.06;54.44;95799.97;5009430;28;20094;-62
2021/08/11 03:26:22;;;;;;;2.90;1.60;;;;;;;11.03;54.23;95801.16;5010356;28;20090;-62
2021/08/11 03:28:47;;;;;;;1.80;1.70;;;;;;;10.99;54.75;95805.97;5010087;28;20110;-62
2021/08/11 03:31:13;;;;;;;7.53;1.52;;;;;;;10.96;54.66;95797.53;5010302;28;20078;-62
2021/08/11 03:33:38;;;;;;;1.23;1.17;;;;;;;10.91;54.82;95792.72;5009667;28;20536;-62
2021/08/11 03:36:04;;;;;;;14.93;1.70;;;;;;;10.91;54.19;95794.56;5012376;28;20106;-62
2021/08/11 03:38:29;;;;;;;4.78;1.75;;;;;;;10.90;53.64;95795.56;5010592;28;20074;-62
2021/08/11 03:40:54;;;;;;;1.90;1.80;;;;;;;10.88;54.02;95798.38;5009725;28;20551;-62
2021/08/11 03:43:20;;;;;;;4.47;2.00;;;;;;;10.83;54.41;95796.28;5009482;28;20090;-62
2021/08/11 03:45:45;;;;;;;8.75;1.83;;;;;;;10.85;54.45;95802.25;5009901;28;20097;-62
2021/08/11 03:48:11;;;;;;;7.72;1.80;;;;;;;10.90;54.20;95807.03;5009594;28;20118;-62
2021/08/11 03:50:36;;;;;;;265.80;9.30;;;;;;;10.84;55.05;95808.56;5009789;28;20095;-62
2021/08/11 03:53:02;;;;;;;219.43;7.30;;;;;;;10.85;55.24;95807.56;5009383;28;20114;-62
2021/08/11 03:55:31;;;;;;;42.13;2.90;;;;;;;10.77;55.57;95807.59;5009500;28;20173;-61
2021/08/11 03:58:00;;;;;;;36.03;2.38;;;;;;;10.86;55.45;95806.56;5005788;28;20112;-62
2021/08/11 04:00:25;;;;;;;6.18;1.80;;;;;;;10.88;55.27;95811.69;5009371;28;20098;-62
2021/08/11 04:02:51;;;;;;;2.83;1.65;;;;;;;10.91;54.88;95803.38;5007172;28;20165;-62
2021/08/11 04:05:16;;;;;;;1.95;1.48;;;;;;;10.91;54.70;95810.56;5008985;28;20947;-62
2021/08/11 04:07:42;;;;;;;3.15;1.67;;;;;;;10.93;54.16;95806.69;5009261;28;20102;-62
2021/08/11 04:10:08;;;;;;;3.13;1.38;;;;;;;10.92;54.19;95818.38;5009546;28;20130;-62
2021/08/11 04:12:34;;;;;;;3.45;1.60;;;;;;;10.88;53.95;95815.22;5009058;28;20164;-63
2021/08/11 04:14:59;;;;;;;1.65;1.55;;;;;;;10.85;54.14;95817.41;5008630;28;20086;-62
2021/08/11 04:17:25;;;;;;;2.83;1.23;;;;;;;10.85;54.07;95826.19;5009453;28;20187;-62
2021/08/11 04:19:50;;;;;;;1.70;1.60;;;;;;;10.83;54.88;95822.06;5007467;28;20110;-62
2021/08/11 04:22:16;;;;;;;3.20;1.75;;;;;;;10.82;54.57;95831.06;5008869;28;20200;-62
2021/08/11 04:24:41;;;;;;;5.60;1.83;;;;;;;10.83;54.35;95828.22;5009211;28;20774;-62
2021/08/11 04:27:07;;;;;;;4.18;1.50;;;;;;;10.85;53.94;95838.72;5009533;28;20093;-62
2021/08/11 04:29:32;;;;;;;1.65;1.55;;;;;;;10.86;53.64;95833.22;5009127;28;20110;-62
2021/08/11 04:31:57;;;;;;;5.45;1.63;;;;;;;10.84;53.80;95839.69;5008502;28;20204;-63
2021/08/11 04:34:23;;;;;;;3.10;1.42;;;;;;;10.79;54.11;95840.25;5009140;28;20086;-62
2021/08/11 04:36:49;;;;;;;1.67;1.58;;;;;;;10.82;53.29;95839.91;5011188;28;20112;-62
2021/08/11 04:39:14;;;;;;;3.05;1.80;;;;;;;10.83;54.68;95840.72;5008946;28;20197;-62
2021/08/11 04:41:39;;;;;;;1.45;1.35;;;;;;;10.88;54.21;95847.16;5008779;28;20048;-62
2021/08/11 04:44:10;;;;;;;1.77;1.38;;;;;;;10.95;54.10;95847.28;5008569;28;20046;-62
2021/08/11 04:46:35;;;;;;;1.80;1.70;;;;;;;10.98;53.22;95843.47;5009439;28;20108;-62
2021/08/11 04:49:00;;;;;;;2.58;1.50;;;;;;;11.03;54.21;95842.94;5008836;28;20605;-62
2021/08/11 04:51:26;;;;;;;2.47;1.80;;;;;;;11.12;53.85;95856.06;5008535;28;20034;-62
2021/08/11 04:53:51;;;;;;;2.50;2.15;;;;;;;11.19;53.46;95852.69;5009345;28;20033;-62
2021/08/11 04:56:18;;;;;;;1.73;1.63;;;;;;;11.26;53.90;95846.47;5008832;28;20499;-62
2021/08/11 04:58:44;;;;;;;4.65;2.20;;;;;;;11.41;53.66;95856.38;5003358;28;20094;-62
2021/08/11 05:01:09;;;;;;;3.78;2.38;;;;;;;11.56;53.45;95858.28;5008201;28;20113;-62
2021/08/11 05:03:35;;;;;;;7.25;2.80;;;;;;;11.69;53.30;95858.50;5005546;28;20396;-62
2021/08/11 05:06:02;;;;;;;6.45;2.08;;;;;;;11.85;53.51;95854.03;5008655;28;20120;-63
2021/08/11 05:08:28;;;;;;;7.35;2.50;;;;;;;12.07;53.19;95857.69;5008693;28;20177;-63
2021/08/11 05:10:53;;;;;;;15.90;2.90;;;;;;;12.26;52.42;95863.53;5008772;28;20042;-62
2021/08/11 05:13:18;;;;;;;7.65;2.30;;;;;;;12.42;52.71;95866.00;5008573;28;20050;-62
2021/08/11 05:15:44;;;;;;;8.60;2.92;;;;;;;12.60;52.41;95862.16;5008491;28;20026;-62
2021/08/11 05:18:11;;;;;;;10.10;2.63;;;;;;;12.76;52.07;95857.63;5009085;28;20022;-62
2021/08/11 05:20:37;;;;;;;8.88;2.85;;;;;;;12.89;51.85;95863.13;5008380;28;20038;-62
2021/08/11 05:23:02;;;;;;;6.57;3.38;;;;;;;13.11;51.84;95859.72;5008943;28;20025;-62
2021/08/11 05:25:28;;;;;;;4.40;3.05;;;;;;;13.28;51.55;95866.50;5008354;28;20088;-61
2021/08/11 05:27:53;;;;;;;30.92;4.10;;;;;;;13.39;51.20;95865.16;5008672;28;20037;-62
2021/08/11 05:30:19;;;;;;;38.55;4.40;;;;;;;13.52;51.41;95868.97;5008536;28;20040;-62
2021/08/11 05:32:44;;;;;;;50.33;3.83;;;;;;;13.65;50.65;95871.81;5007947;28;20045;-62
2021/08/11 05:35:10;;;;;;;78.18;5.07;;;;;;;13.82;50.76;95871.53;5008491;28;20038;-62
2021/08/11 05:37:36;;;;;;;64.07;4.28;;;;;;;13.95;50.86;95869.00;5011038;28;20397;-62
2021/08/11 05:40:02;;;;;;;76.32;4.50;;;;;;;14.06;50.60;95874.84;5006683;28;20037;-63
2021/08/11 05:42:27;;;;;;;67.28;4.60;;;;;;;14.21;50.35;95878.25;5008812;28;20037;-62
2021/08/11 05:44:53;;;;;;;84.50;5.00;;;;;;;14.35;50.65;95875.69;5006958;28;20418;-62
2021/08/11 05:47:18;;;;;;;100.43;4.63;;;;;;;14.46;49.99;95888.50;5006269;28;20403;-62
2021/08/11 05:49:43;;;;;;;97.90;4.65;;;;;;;14.65;50.09;95883.47;5012366;28;20093;-62
2021/08/11 05:52:09;;;;;;;71.07;4.07;;;;;;;14.85;49.86;95875.56;5011631;28;20114;-62
2021/08/11 05:54:35;;;;;;;39.50;3.97;;;;;;;14.99;49.97;95883.66;5012652;28;20543;-62
2021/08/11 05:57:01;;;;;;;32.38;3.72;;;;;;;15.09;49.90;95881.44;5010115;28;20116;-62
2021/08/11 05:59:27;;;;;;;44.05;3.80;;;;;;;15.30;49.52;95881.53;5012026;28;20086;-62
2021/08/11 06:01:52;;;;;;;42.45;4.13;;;;;;;15.45;49.69;95884.88;5011684;28;20120;-62
2021/08/11 06:04:20;;;;;;;22.90;3.70;;;;;;;15.55;49.04;95886.31;5011400;28;20110;-62
2021/08/11 06:06:45;;;;;;;23.83;3.15;;;;;;;15.70;48.93;95886.16;5010406;28;20078;-62
2021/08/11 06:09:10;;;;;;;40.83;3.97;;;;;;;15.85;49.06;95888.69;5003553;28;20134;-62
2021/08/11 06:11:36;;;;;;;54.17;3.55;;;;;;;16.10;48.85;95893.44;5010411;28;20121;-62
2021/08/11 06:14:01;;;;;;;50.55;3.63;;;;;;;16.24;48.36;95881.66;5006228;28;20372;-63
2021/08/11 06:16:27;;;;;;;28.25;3.40;;;;;;;16.42;48.18;95890.13;5001149;28;20117;-62
2021/08/11 06:18:56;;;;;;;27.65;3.80;;;;;;;16.54;48.11;95899.22;5007519;28;20371;-62
2021/08/11 06:21:21;;;;;;;17.77;3.40;;;;;;;16.63;47.31;95886.38;5006916;28;20443;-62
2021/08/11 06:23:47;;;;;;;26.35;3.45;;;;;;;16.78;46.82;95891.50;5004076;28;20164;-63
2021/08/11 06:26:12;;;;;;;16.00;3.58;;;;;;;17.01;47.81;95885.66;5006820;28;20416;-62
2021/08/11 06:28:38;;;;;;;17.90;3.50;;;;;;;17.34;47.19;95886.53;5006755;28;20627;-62
2021/08/11 06:31:03;;;;;;;11.57;3.80;;;;;;;17.66;46.34;95883.06;5007303;28;20089;-62
2021/08/11 06:33:29;;;;;;;8.95;3.47;;;;;;;17.74;46.06;95882.81;5006019;28;20147;-61
2021/08/11 06:35:54;;;;;;;10.55;4.43;;;;;;;17.60;46.04;95889.31;5007053;28;20113;-62
2021/08/11 06:38:19;;;;;;;5.47;3.90;;;;;;;17.24;46.14;95892.38;5006927;28;20856;-62
2021/08/11 06:40:45;;;;;;;5.88;3.95;;;;;;;17.56;46.61;95896.16;5007427;28;20117;-62
2021/08/11 06:43:10;;;;;;;12.13;4.40;;;;;;;17.54;46.36;95894.53;5007297;28;20074;-63
2021/08/11 06:45:36;;;;;;;6.22;4.47;;;;;;;17.68;46.10;95883.69;5006453;28;20702;-63
2021/08/11 06:48:01;;;;;;;7.30;4.15;;;;;;;17.67;46.35;95896.31;5005676;28;20571;-63
2021/08/11 06:50:27;;;;;;;7.18;4.50;;;;;;;17.85;45.18;95891.22;5005125;28;20113;-63
2021/08/11 06:52:52;;;;;;;5.07;3.97;;;;;;;17.99;45.43;95895.50;5006198;28;20054;-63
2021/08/11 06:55:18;;;;;;;6.40;4.22;;;;;;;18.12;45.01;95893.75;5005523;28;20550;-62
2021/08/11 06:57:46;;;;;;;7.13;4.18;;;;;;;18.13;45.85;95898.94;5002255;28;20042;-62
2021/08/11 07:00:12;;;;;;;6.50;4.47;;;;;;;18.22;43.45;95899.44;5001854;28;20197;-63
2021/08/11 07:02:37;;;;;;;4.90;3.70;;;;;;;18.48;44.64;95894.88;5005843;28;20232;-63
2021/08/11 07:05:04;;;;;;;6.80;3.60;;;;;;;18.76;44.27;95887.38;5005304;28;20128;-63
2021/08/11 07:07:30;;;;;;;5.90;3.75;;;;;;;18.96;43.74;95906.03;5004768;28;20026;-62
2021/08/11 07:09:55;;;;;;;6.55;3.90;;;;;;;18.99;43.41;95907.44;5005898;28;20054;-62
2021/08/11 07:12:21;;;;;;;5.03;3.90;;;;;;;18.96;43.57;95908.72;5005326;28;20099;-62
2021/08/11 07:14:47;;;;;;;6.65;4.43;;;;;;;18.77;44.18;95916.81;5005801;28;20037;-62
2021/08/11 07:17:13;;;;;;;6.50;3.77;;;;;;;18.48;44.38;95910.22;5005429;28;20128;-62
2021/08/11 07:19:39;;;;;;;6.43;4.13;;;;;;;18.27;45.01;95914.97;5005176;28;20037;-62
2021/08/11 07:22:05;;;;;;;5.47;4.13;;;;;;;18.29;45.31;95911.00;5006243;28;20026;-63
2021/08/11 07:24:31;;;;;;;5.85;4.05;;;;;;;18.69;44.92;95909.84;5004426;28;20075;-62
2021/08/11 07:26:56;;;;;;;6.80;4.25;;;;;;;18.43;45.01;95917.09;5006082;28;20041;-62
2021/08/11 07:29:22;;;;;;;5.28;3.80;;;;;;;18.13;45.48;95915.09;5005737;28;20038;-62
2021/08/11 07:31:47;;;;;;;6.45;4.38;;;;;;;16.67;49.09;95919.88;5005522;28;20045;-62
2021/08/11 07:34:12;;;;;;;5.75;3.85;;;;;;;17.49;47.62;95912.34;5005550;28;20041;-62
2021/08/11 07:36:38;;;;;;;5.28;4.10;;;;;;;17.84;45.37;95920.00;5004987;28;20057;-62
2021/08/11 07:39:03;;;;;;;4.72;3.33;;;;;;;18.73;44.96;95912.91;5005132;28;20061;-62
2021/08/11 07:41:29;;;;;;;6.53;3.60;;;;;;;19.31;42.99;95908.13;5005640;28;20042;-62
2021/08/11 07:43:54;;;;;;;5.95;3.38;;;;;;;19.38;42.52;95915.31;5005142;28;20045;-62
2021/08/11 07:46:20;;;;;;;4.68;3.30;;;;;;;18.22;44.54;95920.19;5005639;28;20042;-62
2021/08/11 07:48:45;;;;;;;3.05;2.72;;;;;;;18.98;42.13;95913.91;5001425;28;20050;-62
2021/08/11 07:51:10;;;;;;;8.02;3.15;;;;;;;18.65;42.64;95918.59;5004763;28;20248;-62
2021/08/11 07:53:36;;;;;;;4.47;3.30;;;;;;;18.86;43.40;95921.94;5003445;28;20061;-62
2021/08/11 07:56:01;;;;;;;4.20;3.67;;;;;;;18.97;42.81;95926.59;5003842;28;20119;-62
2021/08/11 07:58:27;;;;;;;8.65;6.05;;;;;;;18.99;40.82;95929.03;5003556;28;20390;-62
2021/08/11 08:00:52;;;;;;;7.95;5.15;;;;;;;19.31;40.63;95923.50;5004416;28;20123;-62
2021/08/11 08:03:18;;;;;;;3.00;2.55;;;;;;;19.55;41.77;95920.94;5003831;28;20060;-63
2021/08/11 08:05:43;;;;;;;3.58;2.47;;;;;;;19.70;40.17;95924.03;5004408;28;20073;-62
2021/08/11 08:08:09;;;;;;;5.43;4.75;;;;;;;19.67;40.09;95923.66;5002186;28;20511;-62
2021/08/11 08:10:34;;;;;;;3.47;2.50;;;;;;;19.53;41.76;95931.94;5003052;28;20530;-62
2021/08/11 08:12:59;;;;;;;3.33;2.55;;;;;;;18.91;43.17;95930.16;5002650;28;20037;-62
2021/08/11 08:15:25;;;;;;;2.28;2.08;;;;;;;19.46;41.46;95925.81;5004690;28;20038;-63
2021/08/11 08:17:51;;;;;;;1.90;1.80;;;;;;;19.54;40.92;95939.00;5004858;28;20049;-62
2021/08/11 08:20:16;;;;;;;3.13;2.10;;;;;;;20.21;39.24;95936.41;5004428;28;20037;-62
2021/08/11 08:22:42;;;;;;;2.80;2.20;;;;;;;20.33;39.08;95934.53;5002922;28;20590;-62
2021/08/11 08:25:08;;;;;;;3.58;2.28;;;;;;;19.91;39.29;95937.22;5004003;28;20045;-62
2021/08/11 08:27:33;;;;;;;3.40;2.50;;;;;;;18.89;42.82;95932.25;5004413;28;20403;-62
2021/08/11 08:29:59;;;;;;;2.90;2.10;;;;;;;19.47;41.46;95940.94;5003180;28;20037;-61
2021/08/11 08:32:27;;;;;;;2.78;2.08;;;;;;;19.25;42.06;95936.00;5004017;28;20052;-61
2021/08/11 08:34:53;;;;;;;8.27;4.53;;;;;;;19.20;42.16;95938.53;5002407;28;20090;-62
2021/08/11 08:37:26;;;;;;;2.40;2.13;;;;;;;19.48;41.71;95934.50;5003465;28;20193;-63
2021/08/11 08:39:52;;;;;;;2.60;2.30;;;;;;;19.19;41.85;95951.22;5002719;28;20086;-62
2021/08/11 08:42:17;;;;;;;3.15;2.22;;;;;;;19.44;41.83;95947.63;5005140;28;20078;-62
2021/08/11 08:44:43;;;;;;;3.40;2.60;;;;;;;18.90;42.69;95955.50;5002297;28;20125;-62
2021/08/11 08:47:08;;;;;;;3.15;2.50;;;;;;;19.74;41.15;95950.59;5004516;28;20097;-62
2021/08/11 08:49:33;;;;;;;3.95;2.50;;;;;;;20.05;40.08;95952.22;5003005;28;20057;-62
2021/08/11 08:51:59;;;;;;;2.78;2.20;;;;;;;20.19;39.91;95952.03;5003069;28;20034;-62
2021/08/11 08:54:25;;;;;;;4.97;2.30;;;;;;;20.60;38.88;95955.72;5003630;28;20479;-61
2021/08/11 08:56:50;;;;;;;3.67;2.20;;;;;;;19.89;41.05;95955.56;4986560;28;20175;-62
2021/08/11 08:59:16;;;;;;;2.55;2.30;;;;;;;19.64;40.58;95956.53;5002342;28;20036;-62
2021/08/11 09:01:42;;;;;;;6.47;2.30;;;;;;;19.55;41.19;95964.13;4999185;28;20045;-62
2021/08/11 09:04:07;;;;;;;3.60;2.33;;;;;;;19.32;41.44;95963.78;4993919;28;20073;-66
2021/08/11 09:06:33;;;;;;;4.05;2.30;;;;;;;19.36;41.09;95964.13;5001421;28;20022;-62
2021/08/11 09:09:10;;;;;;;2.75;2.20;;;;;;;19.55;40.48;95962.22;4999202;28;20537;-62
2021/08/11 09:11:37;;;;;;;4.90;2.35;;;;;;;19.72;41.07;95954.31;5000812;28;20466;-66
2021/08/11 09:14:24;;;;;;;3.80;2.55;;;;;;;18.70;42.08;95967.31;4999861;28;20503;-69
2021/08/11 09:16:51;;;;;;;3.35;2.30;;;;;;;20.09;39.45;95961.53;5001194;28;20030;-62
2021/08/11 09:19:17;;;;;;;4.20;2.38;;;;;;;20.28;40.05;95957.91;5000097;28;20513;-62
2021/08/11 09:22:12;;;;;;;4.82;2.50;;;;;;;21.01;38.93;95955.06;5003453;28;20042;-62
2021/08/11 09:24:38;;;;;;;4.45;2.40;;;;;;;21.08;37.29;95958.44;4992644;28;20069;-61
2021/08/11 09:27:20;;;;;;;3.22;2.40;;;;;;;21.11;36.47;95955.25;5005902;28;20076;-62
2021/08/11 09:30:05;;;;;;;3.42;2.25;;;;;;;21.26;37.55;95964.75;5005133;28;20470;-61
2021/08/11 09:32:31;;;;;;;4.15;2.20;;;;;;;20.83;37.22;95958.69;4999063;28;20045;-61
2021/08/11 09:34:56;;;;;;;2.50;2.10;;;;;;;21.35;36.65;95963.34;4978282;28;20368;-61
2021/08/11 09:37:41;;;;;;;2.70;1.95;;;;;;;21.18;35.34;95951.59;5004796;28;20038;-61
2021/08/11 09:40:13;;;;;;;2.47;2.00;;;;;;;20.91;34.87;95955.66;4999381;28;20145;-61
2021/08/11 09:42:39;;;;;;;2.38;1.80;;;;;;;21.04;35.28;95957.25;5004568;28;20045;-61
2021/08/11 09:45:08;;;;;;;3.78;1.92;;;;;;;20.81;37.50;95958.94;5002915;28;20042;-61
2021/08/11 09:47:33;;;;;;;3.28;2.17;;;;;;;20.19;39.03;95955.56;5005073;28;20057;-61
2021/08/11 09:50:08;;;;;;;3.03;2.20;;;;;;;20.07;38.51;95950.13;5003406;28;20483;-62
2021/08/11 09:52:49;;;;;;;3.33;1.90;;;;;;;19.89;39.19;95952.88;5004894;28;20050;-61
2021/08/11 09:55:15;;;;;;;4.78;2.47;;;;;;;20.03;39.21;95951.66;5003999;28;20081;-62
2021/08/11 09:57:41;;;;;;;3.08;2.30;;;;;;;20.00;40.00;95962.09;5003181;28;20892;-62
2021/08/11 10:00:07;;;;;;;2.30;2.10;;;;;;;20.38;39.10;95962.75;5002351;28;20547;-62
2021/08/11 10:02:33;;;;;;;4.10;2.30;;;;;;;20.52;38.56;95958.78;5002713;28;20535;-62
2021/08/11 10:04:58;;;;;;;5.90;2.22;;;;;;;20.03;39.12;95959.75;5002962;28;20103;-61
2021/08/11 10:07:24;;;;;;;2.78;1.95;;;;;;;21.04;37.83;95962.66;5002627;28;20080;-60
2021/08/11 10:10:03;;;;;;;2.20;1.98;;;;;;;21.49;36.80;95963.91;5003356;28;20111;-61
2021/08/11 10:12:29;;;;;;;1.92;1.83;;;;;;;21.78;35.61;95963.09;5001424;28;20172;-60
2021/08/11 10:14:56;;;;;;;3.13;2.20;;;;;;;21.36;36.26;95962.31;5001968;28;20026;-68
2021/08/11 10:17:23;;;;;;;4.15;2.10;;;;;;;21.84;35.34;95962.13;5003101;28;20034;-61
2021/08/11 10:19:48;;;;;;;2.28;2.08;;;;;;;21.27;36.81;95965.59;5002362;28;20068;-60
2021/08/11 10:22:20;;;;;;;4.43;2.30;;;;;;;21.77;35.78;95969.59;5000118;28;20037;-61
2021/08/11 10:24:45;;;;;;;2.53;2.15;;;;;;;22.44;34.73;95966.44;5001627;28;20046;-61
2021/08/11 10:27:14;;;;;;;2.88;2.20;;;;;;;22.31;35.06;95968.41;5003773;28;20034;-61
2021/08/11 10:29:39;;;;;;;3.50;2.20;;;;;;;21.99;35.51;95971.66;5003261;28;20044;-61
2021/08/11 10:32:07;;;;;;;3.40;1.95;;;;;;;22.60;34.57;95970.25;5002852;28;20049;-61
2021/08/11 10:34:33;;;;;;;3.38;2.35;;;;;;;22.72;34.27;95970.97;5003191;28;20045;-61
2021/08/11 10:36:59;;;;;;;3.40;2.28;;;;;;;23.24;32.76;95970.88;5000217;28;20542;-62
2021/08/11 10:39:25;;;;;;;2.22;2.00;;;;;;;22.85;32.52;95971.69;5002063;28;20044;-62
2021/08/11 10:41:50;;;;;;;2.38;2.17;;;;;;;23.07;33.03;95976.34;5001933;28;20495;-61
2021/08/11 10:44:16;;;;;;;3.40;2.70;;;;;;;23.28;32.58;95966.59;5001460;28;20038;-61
2021/08/11 10:46:42;;;;;;;3.13;1.90;;;;;;;23.57;31.82;95974.56;5002524;28;20114;-60
2021/08/11 10:49:08;;;;;;;2.20;2.00;;;;;;;23.56;31.00;95978.38;5002894;28;20038;-60
2021/08/11 10:51:41;;;;;;;2.85;2.08;;;;;;;23.41;31.58;95976.28;5002949;28;20038;-61
2021/08/11 10:54:07;;;;;;;3.05;2.00;;;;;;;22.91;32.86;95984.28;5001267;28;20133;-61
2021/08/11 10:56:55;;;;;;;2.38;2.10;;;;;;;22.33;34.54;95982.53;5002542;28;20060;-61
2021/08/11 10:59:28;;;;;;;2.53;2.00;;;;;;;22.24;34.31;95984.00;4999033;28;20593;-60
2021/08/11 11:01:55;;;;;;;2.88;2.10;;;;;;;21.89;33.47;95986.63;4996980;28;20041;-60
2021/08/11 11:04:43;;;;;;;3.17;2.25;;;;;;;21.66;35.87;95986.72;4984146;28;20056;-60
2021/08/11 11:07:18;;;;;;;2.78;1.95;;;;;;;21.64;35.31;95984.22;4999564;28;20057;-61
2021/08/11 11:09:45;;;;;;;3.58;2.28;;;;;;;22.19;34.60;95978.50;5003108;28;20396;-61
2021/08/11 11:12:19;;;;;;;2.50;2.08;;;;;;;22.31;34.08;95979.25;5003165;28;20045;-64
2021/08/11 11:14:48;;;;;;;2.63;2.10;;;;;;;22.50;33.48;95974.41;4999433;28;20040;-64
2021/08/11 11:17:14;;;;;;;2.65;2.00;;;;;;;22.85;32.03;95977.13;5001556;28;20109;-61
2021/08/11 11:20:09;;;;;;;3.00;2.47;;;;;;;22.21;31.99;95968.22;4996450;28;20034;-61
2021/08/11 11:22:37;;;;;;;2.22;2.03;;;;;;;22.52;31.92;95974.16;5000162;28;20129;-61
2021/08/11 11:25:04;;;;;;;3.40;2.15;;;;;;;22.65;32.46;95968.44;5002508;28;20034;-62
2021/08/11 11:27:54;;;;;;;2.75;2.38;;;;;;;22.54;32.87;95966.63;5003157;28;20091;-61
2021/08/11 11:30:40;;;;;;;3.22;2.40;;;;;;;22.23;33.44;95969.63;4995371;28;20129;-62
2021/08/11 11:33:18;;;;;;;2.67;2.25;;;;;;;22.46;33.17;95967.00;4997747;28;20053;-62
2021/08/11 11:35:44;;;;;;;3.47;2.20;;;;;;;21.68;35.20;95974.56;4999522;28;20048;-61